Time;durP1;ratioP1;P1;durP2;ratioP2;P2;SDS_P1;SDS_P2;PMS_P1;PMS_P2;Temp;Humidity;BMP_temperature;BMP_pressure;BME280_temperature;BME280_humidity;BME280_pressure;Samples;Min_cycle;Max_cycle;Signal;HPM_P1;HPM_P2
2024/04/01 00:01:36;;;;;;;2.23;0.80;;;9.70;99.90;;;10.50;100.00;95919.00;5001016;28;20478;-77
2024/04/01 00:04:04;;;;;;;3.67;1.10;;;9.70;99.90;;;10.51;100.00;95911.97;5001116;28;20561;-77
2024/04/01 00:06:30;;;;;;;3.27;0.90;;;9.70;99.90;;;10.48;100.00;95892.31;5021838;28;20484;-76
2024/04/01 00:08:57;;;;;;;1.27;1.00;;;9.60;99.90;;;10.50;100.00;95887.66;5009300;28;20494;-77
2024/04/01 00:11:25;;;;;;;2.40;0.90;;;9.70;99.90;;;10.42;100.00;95895.09;5019341;28;20461;-77
2024/04/01 00:13:53;;;;;;;2.00;1.00;;;9.60;99.90;;;10.42;100.00;95895.88;5004756;28;20499;-77
2024/04/01 00:16:19;;;;;;;1.07;0.97;;;9.60;99.90;;;10.41;100.00;95906.59;5002927;28;20493;-77
2024/04/01 00:18:47;;;;;;;2.50;1.00;;;9.60;99.90;;;10.41;100.00;95907.34;5008474;28;20964;-77
2024/04/01 00:21:13;;;;;;;2.60;0.90;;;9.60;99.90;;;10.39;100.00;95898.19;5007087;28;20477;-77
2024/04/01 00:23:43;;;;;;;5.00;2.30;;;9.50;99.90;;;10.37;100.00;95906.25;5021900;28;20478;-77
2024/04/01 00:26:09;;;;;;;3.10;1.00;;;9.50;99.90;;;10.33;100.00;95910.38;5005972;28;20971;-77
2024/04/01 00:28:38;;;;;;;2.30;1.10;;;9.50;99.90;;;10.25;100.00;95916.00;5004604;28;20473;-77
2024/04/01 00:31:04;;;;;;;1.10;1.00;;;9.40;99.90;;;10.22;100.00;95926.91;5003426;28;20472;-77
2024/04/01 00:33:32;;;;;;;2.70;1.10;;;9.30;99.90;;;10.25;100.00;95925.63;5017044;28;20467;-77
2024/04/01 00:35:58;;;;;;;7.70;1.10;;;9.40;99.90;;;10.32;100.00;95919.22;5018335;28;20496;-78
2024/04/01 00:38:25;;;;;;;1.83;1.10;;;9.50;99.90;;;10.36;100.00;95917.75;5002267;28;20497;-77
2024/04/01 00:40:52;;;;;;;2.40;1.10;;;9.50;99.90;;;10.37;100.00;95928.97;5004722;28;20990;-77
2024/04/01 00:43:19;;;;;;;1.57;1.03;;;9.50;99.90;;;10.37;100.00;95924.56;5000266;28;21022;-77
2024/04/01 00:45:49;;;;;;;5.23;1.20;;;9.50;99.90;;;10.42;100.00;95916.78;5005358;28;20476;-77
2024/04/01 00:48:18;;;;;;;0.90;0.80;;;9.50;99.90;;;10.43;100.00;95902.69;5001807;28;20476;-77
2024/04/01 00:50:48;;;;;;;2.50;1.10;;;9.60;99.90;;;10.46;100.00;95896.19;5003764;28;20485;-77
2024/04/01 00:53:20;;;;;;;3.77;1.00;;;9.60;99.90;;;10.43;100.00;95892.25;5005908;28;21032;-77
2024/04/01 00:55:48;;;;;;;1.47;1.00;;;9.60;99.90;;;10.45;100.00;95877.09;5001609;28;20501;-77
2024/04/01 00:58:18;;;;;;;3.47;1.30;;;9.60;99.90;;;10.45;100.00;95874.50;5005859;28;20563;-77
2024/04/01 01:00:49;;;;;;;1.20;1.10;;;9.60;99.90;;;10.42;100.00;95864.53;4998708;28;20471;-77
2024/04/01 01:03:17;;;;;;;2.00;0.97;;;9.50;99.90;;;10.39;100.00;95859.78;5005301;28;20482;-77
2024/04/01 01:05:46;;;;;;;3.37;1.13;;;9.60;99.90;;;10.43;100.00;95865.31;5005909;28;20477;-77
2024/04/01 01:08:14;;;;;;;3.00;0.87;;;9.60;99.90;;;10.44;100.00;95861.69;5005608;28;21079;-77
2024/04/01 01:10:41;;;;;;;7.20;0.93;;;9.60;99.90;;;10.42;100.00;95859.31;5006142;28;20512;-77
2024/04/01 01:13:08;;;;;;;1.50;0.90;;;9.60;99.90;;;10.45;100.00;95852.78;5002635;28;20884;-77
2024/04/01 01:15:35;;;;;;;1.90;1.27;;;9.60;99.90;;;10.44;100.00;95844.19;5005651;28;20491;-76
2024/04/01 01:18:04;;;;;;;1.20;1.10;;;9.50;99.90;;;10.45;100.00;95844.97;5001859;28;20469;-77
2024/04/01 01:20:30;;;;;;;1.47;1.00;;;9.50;99.90;;;10.40;100.00;95840.47;5006439;28;20842;-77
2024/04/01 01:22:59;;;;;;;1.60;1.03;;;9.50;99.90;;;10.44;100.00;95841.59;5011594;28;20468;-77
2024/04/01 01:25:26;;;;;;;3.03;0.90;;;9.60;99.90;;;10.37;100.00;95840.97;5006929;28;20491;-77
2024/04/01 01:27:53;;;;;;;1.73;1.47;;;9.50;99.90;;;10.29;100.00;95838.75;5005408;28;20971;-77
2024/04/01 01:30:20;;;;;;;3.00;1.17;;;9.40;99.90;;;10.30;100.00;95824.66;5002581;28;20485;-77
2024/04/01 01:32:50;;;;;;;1.80;1.23;;;9.40;99.90;;;10.32;100.00;95812.13;4999649;28;21014;-77
2024/04/01 01:35:21;;;;;;;5.80;1.43;;;9.50;99.90;;;10.35;100.00;95803.81;5002222;28;20493;-77
2024/04/01 01:37:50;;;;;;;1.17;1.00;;;9.50;99.90;;;10.35;100.00;95790.75;5001342;28;20564;-77
2024/04/01 01:40:18;;;;;;;2.47;1.20;;;9.50;99.90;;;10.38;100.00;95787.66;5005846;28;20466;-77
2024/04/01 01:42:46;;;;;;;7.50;1.23;;;9.50;99.90;;;10.42;100.00;95801.03;4998226;28;20480;-77
2024/04/01 01:45:13;;;;;;;4.73;1.30;;;9.50;99.90;;;10.42;100.00;95801.81;5000361;28;20811;-77
2024/04/01 01:47:41;;;;;;;1.20;0.93;;;9.50;99.90;;;10.39;100.00;95802.31;5003842;28;20509;-77
2024/04/01 01:50:08;;;;;;;2.23;1.20;;;9.50;99.90;;;10.39;100.00;95796.28;4999710;28;20485;-77
2024/04/01 01:52:36;;;;;;;1.10;1.00;;;9.50;99.90;;;10.39;100.00;95791.84;4998753;28;20985;-77
2024/04/01 01:55:05;;;;;;;2.93;1.07;;;9.50;99.90;;;10.38;100.00;95795.50;5000504;28;21306;-77
2024/04/01 01:57:34;;;;;;;1.13;1.03;;;9.50;99.90;;;10.33;100.00;95795.44;5001782;28;20470;-77
2024/04/01 02:00:05;;;;;;;6.60;1.50;;;9.50;99.90;;;10.31;100.00;95800.09;5003760;28;20477;-77
2024/04/01 02:02:33;;;;;;;2.70;1.10;;;9.40;99.90;;;10.34;100.00;95801.47;5007751;28;20473;-78
2024/04/01 02:04:59;;;;;;;4.40;1.33;;;9.50;99.90;;;10.32;100.00;95793.06;5001102;28;20842;-77
2024/04/01 02:07:27;;;;;;;1.57;1.10;;;9.40;99.90;;;10.33;100.00;95782.38;5004281;28;20472;-77
2024/04/01 02:09:53;;;;;;;3.43;1.43;;;9.50;99.90;;;10.37;100.00;95778.25;5017353;28;21152;-78
2024/04/01 02:12:20;;;;;;;3.10;1.57;;;9.50;99.90;;;10.37;100.00;95783.47;5004979;28;20488;-77
2024/04/01 02:14:48;;;;;;;2.60;1.20;;;9.50;99.90;;;10.35;100.00;95795.97;4998329;28;20478;-77
2024/04/01 02:17:16;;;;;;;4.50;1.27;;;9.50;99.90;;;10.36;100.00;95781.91;5004957;28;20473;-77
2024/04/01 02:19:45;;;;;;;1.57;1.00;;;9.60;99.90;;;10.37;100.00;95783.47;5001039;28;20469;-76
2024/04/01 02:22:13;;;;;;;1.30;1.20;;;9.60;99.90;;;10.41;100.00;95784.56;5003548;28;20463;-77
2024/04/01 02:24:40;;;;;;;6.23;1.50;;;9.60;99.90;;;10.44;100.00;95772.84;5004356;28;20471;-77
2024/04/01 02:27:09;;;;;;;2.27;1.57;;;9.60;99.90;;;10.44;100.00;95772.84;5005164;28;20478;-77
2024/04/01 02:29:35;;;;;;;1.73;1.20;;;9.60;99.90;;;10.44;100.00;95765.81;5001842;28;20465;-77
2024/04/01 02:32:04;;;;;;;1.40;1.10;;;9.60;99.90;;;10.42;100.00;95770.47;5017998;28;20554;-77
2024/04/01 02:34:31;;;;;;;2.60;1.30;;;9.60;99.90;;;10.41;100.00;95776.72;4999441;28;20813;-77
2024/04/01 02:36:59;;;;;;;4.50;1.17;;;9.60;99.90;;;10.40;100.00;95796.06;4997812;28;20508;-76
2024/04/01 02:39:25;;;;;;;1.67;1.37;;;9.60;99.90;;;10.42;100.00;95801.81;5003180;28;20471;-77
2024/04/01 02:41:53;;;;;;;4.50;1.27;;;9.60;99.90;;;10.37;100.00;95793.13;5003098;28;20467;-77
2024/04/01 02:44:19;;;;;;;5.50;1.30;;;9.50;99.90;;;10.36;100.00;95797.56;5004043;28;20831;-77
2024/04/01 02:46:47;;;;;;;5.33;1.30;;;9.50;99.90;;;10.37;100.00;95803.59;5003133;28;20831;-77
2024/04/01 02:49:15;;;;;;;2.60;1.40;;;9.50;99.90;;;10.29;100.00;95794.34;5001750;28;20501;-77
2024/04/01 02:51:42;;;;;;;2.70;1.40;;;9.40;99.90;;;10.35;100.00;95789.97;5013740;28;20485;-77
2024/04/01 02:54:09;;;;;;;5.83;1.50;;;9.50;99.90;;;10.37;100.00;95770.41;4999413;28;20958;-76
2024/04/01 02:56:37;;;;;;;2.23;1.20;;;9.50;99.90;;;10.37;100.00;95744.28;5013781;28;20554;-78
2024/04/01 02:59:04;;;;;;;2.40;1.83;;;9.60;99.90;;;10.39;100.00;95746.66;5001951;28;20465;-77
2024/04/01 03:01:32;;;;;;;1.37;1.10;;;9.60;99.90;;;10.32;100.00;95754.66;5013139;28;20860;-77
2024/04/01 03:04:01;;;;;;;5.13;1.70;;;9.60;99.90;;;10.29;100.00;95757.75;5001676;28;20462;-77
2024/04/01 03:06:31;;;;;;;3.20;1.20;;;9.60;99.90;;;10.29;100.00;95749.13;5015850;28;20849;-78
2024/04/01 03:08:58;;;;;;;11.30;5.93;;;9.50;99.90;;;10.23;100.00;95756.13;5000353;28;20870;-81
2024/04/01 03:11:26;;;;;;;2.37;1.70;;;9.40;99.90;;;10.31;100.00;95745.25;5001403;28;20478;-77
2024/04/01 03:13:52;;;;;;;2.60;1.50;;;9.50;99.90;;;10.29;100.00;95744.72;5001046;28;20482;-77
2024/04/01 03:16:21;;;;;;;7.20;1.60;;;9.50;99.90;;;10.28;100.00;95748.34;5015168;28;20532;-77
2024/04/01 03:18:47;;;;;;;1.30;1.00;;;9.50;99.90;;;10.25;100.00;95748.03;5000952;28;20878;-77
2024/04/01 03:21:15;;;;;;;1.40;1.13;;;9.50;99.90;;;10.28;100.00;95748.34;5000263;28;20572;-77
2024/04/01 03:23:43;;;;;;;2.80;1.50;;;9.40;99.90;;;10.27;100.00;95751.22;5014773;28;20469;-82
2024/04/01 03:26:11;;;;;;;4.10;1.40;;;9.40;99.90;;;10.34;100.00;95755.22;4998801;28;20471;-77
2024/04/01 03:28:38;;;;;;;3.87;1.40;;;9.50;99.90;;;10.39;100.00;95742.22;4996602;28;20469;-78
2024/04/01 03:31:06;;;;;;;1.70;1.13;;;9.50;99.90;;;10.41;100.00;95753.22;4997356;28;20883;-77
2024/04/01 03:33:33;;;;;;;1.23;1.10;;;9.50;99.90;;;10.42;100.00;95754.78;4995684;28;20473;-76
2024/04/01 03:36:01;;;;;;;1.57;1.17;;;9.60;99.90;;;10.33;100.00;95758.06;5014391;28;21001;-75
2024/04/01 03:38:28;;;;;;;1.87;0.90;;;9.50;99.90;;;10.24;100.00;95762.91;5002307;28;20470;-76
2024/04/01 03:40:57;;;;;;;1.33;0.97;;;9.50;99.90;;;10.30;100.00;95756.75;5002645;28;20478;-77
2024/04/01 03:43:24;;;;;;;2.80;1.07;;;9.50;99.90;;;10.30;100.00;95756.75;5003318;28;20521;-76
2024/04/01 03:45:59;;;;;;;1.33;1.10;;;9.50;99.90;;;10.30;100.00;95761.97;5001537;28;20544;-75
2024/04/01 03:48:25;;;;;;;3.97;1.00;;;9.50;99.90;;;10.32;100.00;95753.88;4998459;28;20462;-75
2024/04/01 03:50:53;;;;;;;2.80;1.60;;;9.50;99.90;;;10.33;100.00;95748.41;4998829;28;20489;-77
2024/04/01 03:53:20;;;;;;;3.00;1.57;;;9.50;99.90;;;10.30;100.00;95748.13;5000566;28;20525;-75
2024/04/01 03:55:48;;;;;;;1.20;0.97;;;9.50;99.90;;;10.32;100.00;95739.00;5004240;28;20489;-76
2024/04/01 03:58:16;;;;;;;2.83;1.20;;;9.50;99.90;;;10.36;100.00;95745.31;5000412;28;20469;-76
2024/04/01 04:00:43;;;;;;;5.60;0.83;;;9.50;99.90;;;10.32;100.00;95746.84;5003386;28;20487;-76
2024/04/01 04:03:10;;;;;;;1.27;1.17;;;9.50;99.90;;;10.33;100.00;95753.66;4999642;28;20469;-78
2024/04/01 04:05:37;;;;;;;2.07;1.30;;;9.50;99.90;;;10.34;100.00;95751.81;4999522;28;20475;-75
2024/04/01 04:08:05;;;;;;;4.17;1.20;;;9.50;99.90;;;10.29;100.00;95747.31;4999950;28;20573;-77
2024/04/01 04:10:33;;;;;;;9.03;1.80;;;9.50;99.90;;;10.29;100.00;95757.75;4995662;28;20529;-77
2024/04/01 04:12:59;;;;;;;2.33;1.03;;;9.50;99.90;;;10.32;100.00;95759.88;5012328;28;20470;-77
2024/04/01 04:15:28;;;;;;;1.20;1.10;;;9.50;99.90;;;10.28;100.00;95766.63;4997732;28;20538;-76
2024/04/01 04:17:56;;;;;;;2.50;1.20;;;9.50;99.90;;;10.24;100.00;95778.59;5001498;28;20450;-77
2024/04/01 04:20:23;;;;;;;1.13;0.70;;;9.40;99.90;;;10.25;100.00;95793.22;5003572;28;20477;-77
2024/04/01 04:22:50;;;;;;;1.47;1.00;;;9.50;99.90;;;10.25;100.00;95800.28;4997326;28;20476;-80
2024/04/01 04:25:17;;;;;;;1.40;1.03;;;9.50;99.90;;;10.25;100.00;95793.22;4998249;28;20487;-76
2024/04/01 04:27:44;;;;;;;2.03;1.57;;;9.50;99.90;;;10.30;100.00;95797.75;5000110;28;20470;-78
2024/04/01 04:30:13;;;;;;;6.20;0.90;;;9.50;99.90;;;10.30;100.00;95798.53;5015355;28;20469;-77
2024/04/01 04:32:42;;;;;;;1.20;1.00;;;9.50;99.90;;;10.28;100.00;95805.81;5000133;28;20513;-77
2024/04/01 04:35:13;;;;;;;12.47;0.80;;;9.50;99.90;;;10.31;100.00;95807.94;4999574;28;20681;-77
2024/04/01 04:37:40;;;;;;;11.23;0.87;;;9.50;99.90;;;10.31;100.00;95810.53;5000222;28;20500;-77
2024/04/01 04:40:10;;;;;;;0.97;0.80;;;9.50;99.90;;;10.30;100.00;95808.19;5001527;28;20924;-77
2024/04/01 04:42:36;;;;;;;1.23;0.80;;;9.50;99.90;;;10.30;100.00;95800.34;5002087;28;20469;-78
2024/04/01 04:45:04;;;;;;;3.30;1.10;;;9.50;99.90;;;10.32;100.00;95806.13;4999683;28;21045;-77
2024/04/01 04:47:31;;;;;;;3.10;1.10;;;9.50;99.90;;;10.30;100.00;95808.19;5002106;28;20472;-77
2024/04/01 04:50:01;;;;;;;1.00;0.90;;;9.40;99.90;;;10.31;100.00;95800.09;5000032;28;20526;-77
2024/04/01 04:52:27;;;;;;;7.07;1.20;;;9.40;99.90;;;10.27;100.00;95812.09;4998321;28;21017;-77
2024/04/01 04:54:55;;;;;;;0.80;0.70;;;9.40;99.90;;;10.28;100.00;95812.84;5002555;28;20569;-77
2024/04/01 04:57:22;;;;;;;5.33;2.30;;;9.50;99.90;;;10.27;100.00;95824.34;5014356;28;20514;-77
2024/04/01 04:59:49;;;;;;;0.80;0.73;;;9.40;99.90;;;10.28;100.00;95820.69;4999883;28;20476;-77
2024/04/01 05:02:16;;;;;;;4.30;0.90;;;9.50;99.90;;;10.27;100.00;95825.13;5000300;28;20473;-77
2024/04/01 05:04:43;;;;;;;1.00;0.90;;;9.50;99.90;;;10.26;100.00;95826.16;4992922;28;20529;-78
2024/04/01 05:07:13;;;;;;;3.70;1.33;;;9.40;99.90;;;10.21;100.00;95830.50;5011557;28;20804;-81
2024/04/01 05:09:40;;;;;;;3.33;1.70;;;9.40;99.90;;;10.23;100.00;95839.69;4998841;28;20470;-78
2024/04/01 05:12:07;;;;;;;2.60;0.90;;;9.40;99.90;;;10.24;100.00;95837.88;5009009;28;20943;-78
2024/04/01 05:14:34;;;;;;;6.63;0.70;;;9.40;99.90;;;10.27;100.00;95840.00;4996376;28;20473;-78
2024/04/01 05:17:01;;;;;;;2.57;0.80;;;9.40;99.90;;;10.24;100.00;95851.72;5010706;28;20497;-78
2024/04/01 05:19:28;;;;;;;1.47;1.20;;;9.40;99.90;;;10.27;100.00;95847.84;4989507;28;20822;-77
2024/04/01 05:21:56;;;;;;;2.30;1.20;;;9.50;99.90;;;10.28;100.00;95846.81;4995233;28;20533;-77
2024/04/01 05:24:25;;;;;;;2.33;1.03;;;9.50;99.90;;;10.24;100.00;95851.72;4998393;28;20876;-78
2024/04/01 05:26:52;;;;;;;0.90;0.70;;;9.40;99.90;;;10.25;100.00;95847.28;4995401;28;20513;-78
2024/04/01 05:29:20;;;;;;;1.47;0.80;;;9.40;99.90;;;10.22;100.00;95847.75;4991764;28;20474;-84
2024/04/01 05:31:47;;;;;;;1.23;0.90;;;9.50;99.90;;;10.15;100.00;95863.59;4995108;28;20819;-78
2024/04/01 05:34:13;;;;;;;0.90;0.70;;;9.50;99.90;;;10.15;100.00;95866.22;4998854;28;20528;-78
2024/04/01 05:36:41;;;;;;;2.60;0.87;;;9.50;99.90;;;10.15;100.00;95865.41;4991502;28;20518;-78
2024/04/01 05:39:07;;;;;;;0.80;0.70;;;9.40;99.90;;;10.10;100.00;95868.69;4991772;28;21053;-77
2024/04/01 05:41:36;;;;;;;1.17;0.80;;;9.50;99.90;;;10.11;100.00;95872.91;4993022;28;20485;-78
2024/04/01 05:44:03;;;;;;;1.43;0.80;;;9.50;99.90;;;9.97;100.00;95874.25;4997162;28;20469;-77
2024/04/01 05:46:30;;;;;;;0.70;0.70;;;9.40;99.90;;;10.01;100.00;95859.69;5016360;28;20893;-78
2024/04/01 05:48:56;;;;;;;0.80;0.70;;;9.30;99.90;;;9.91;100.00;95869.97;5016357;28;20935;-78
2024/04/01 05:51:24;;;;;;;0.80;0.60;;;9.30;99.90;;;9.95;100.00;95878.91;5000319;28;20479;-78
2024/04/01 05:53:50;;;;;;;0.80;0.70;;;9.20;99.90;;;9.93;100.00;95883.56;4999120;28;20474;-77
2024/04/01 05:56:18;;;;;;;0.77;0.67;;;9.20;99.90;;;9.88;100.00;95886.09;4997970;28;20504;-78
2024/04/01 05:58:45;;;;;;;1.17;0.80;;;9.30;99.90;;;9.90;100.00;95894.47;4997671;28;21130;-82
2024/04/01 06:01:13;;;;;;;0.70;0.60;;;9.30;99.90;;;9.84;100.00;95898.84;4998399;28;20473;-78
2024/04/01 06:03:39;;;;;;;1.03;0.70;;;9.10;99.90;;;9.83;100.00;95891.22;4996679;28;21186;-78
2024/04/01 06:06:07;;;;;;;1.27;0.70;;;9.10;99.90;;;9.85;100.00;95899.63;4999595;28;20956;-82
2024/04/01 06:08:33;;;;;;;0.90;0.80;;;9.10;99.90;;;9.81;100.00;95909.75;5015202;28;20470;-78
2024/04/01 06:11:02;;;;;;;5.90;0.90;;;9.10;99.90;;;9.83;100.00;95902.47;5000813;28;20466;-78
2024/04/01 06:13:28;;;;;;;0.87;0.60;;;9.00;99.90;;;9.76;100.00;95912.25;4991861;28;20889;-77
2024/04/01 06:15:57;;;;;;;0.90;0.80;;;9.00;99.90;;;9.73;100.00;95923.16;5001096;28;20965;-77
2024/04/01 06:18:24;;;;;;;0.90;0.70;;;8.90;99.90;;;9.75;100.00;95928.97;4996796;28;20461;-78
2024/04/01 06:20:51;;;;;;;3.27;0.70;;;9.00;99.90;;;9.76;100.00;95927.13;4994892;28;21078;-78
2024/04/01 06:23:17;;;;;;;0.70;0.60;;;9.00;99.90;;;9.74;100.00;95924.75;4999436;28;20469;-78
2024/04/01 06:25:46;;;;;;;1.00;0.60;;;8.90;99.90;;;9.75;100.00;95928.16;5000654;28;20471;-79
2024/04/01 06:28:13;;;;;;;2.30;0.70;;;8.90;99.90;;;9.71;100.00;95922.63;5018122;28;20827;-78
2024/04/01 06:30:40;;;;;;;1.13;0.80;;;8.90;99.90;;;9.65;100.00;95943.66;5015806;28;20479;-78
2024/04/01 06:33:08;;;;;;;0.70;0.60;;;8.90;99.90;;;9.60;100.00;95960.78;4995222;28;20468;-78
2024/04/01 06:35:36;;;;;;;3.40;0.80;;;8.80;99.90;;;9.63;100.00;95969.94;4997786;28;22807;-78
2024/04/01 06:38:02;;;;;;;0.90;0.70;;;8.80;99.90;;;9.67;100.00;95971.09;4995526;28;20497;-77
2024/04/01 06:40:29;;;;;;;1.43;0.70;;;8.90;99.90;;;9.67;100.00;95973.69;4998198;28;20494;-78
2024/04/01 06:42:56;;;;;;;0.73;0.70;;;8.90;99.90;;;9.71;100.00;95972.22;4998316;28;20486;-78
2024/04/01 06:45:23;;;;;;;1.67;0.70;;;8.90;99.90;;;9.66;100.00;95971.31;5000430;28;21022;-80
2024/04/01 06:47:50;;;;;;;1.27;0.70;;;8.80;99.90;;;9.70;100.00;95985.47;4999891;28;20477;-78
2024/04/01 06:50:19;;;;;;;0.80;0.70;;;8.90;99.90;;;9.70;100.00;95990.69;4996217;28;20988;-77
2024/04/01 06:52:46;;;;;;;0.70;0.60;;;9.00;99.90;;;9.73;100.00;95990.22;4995409;28;20479;-77
2024/04/01 06:55:14;;;;;;;1.10;0.70;;;9.10;99.90;;;9.71;100.00;95992.28;5003137;28;20481;-78
2024/04/01 06:57:42;;;;;;;1.20;0.70;;;9.10;99.90;;;9.71;100.00;96000.91;4995973;28;20694;-78
2024/04/01 07:00:11;;;;;;;2.27;1.00;;;9.00;99.90;;;9.68;100.00;96001.38;4994279;28;20505;-78
2024/04/01 07:02:38;;;;;;;3.90;1.00;;;9.00;99.90;;;9.71;100.00;96005.34;5000108;28;20482;-77
2024/04/01 07:05:06;;;;;;;0.70;0.70;;;9.00;99.90;;;9.75;100.00;95996.03;4998114;28;20513;-78
2024/04/01 07:07:35;;;;;;;0.70;0.70;;;9.00;99.90;;;9.75;100.00;95999.44;4996006;28;20471;-78
2024/04/01 07:10:02;;;;;;;2.70;0.70;;;9.00;99.90;;;9.68;100.00;95992.75;5002639;28;20469;-78
2024/04/01 07:12:29;;;;;;;0.70;0.60;;;9.10;99.90;;;9.68;100.00;95995.38;4996775;28;20465;-77
2024/04/01 07:14:57;;;;;;;1.07;0.97;;;9.00;99.90;;;9.72;100.00;95991.28;5003632;28;20492;-77
2024/04/01 07:17:23;;;;;;;1.70;0.80;;;9.00;99.90;;;9.77;100.00;95993.97;5002565;28;20950;-78
2024/04/01 07:19:51;;;;;;;1.00;0.80;;;9.00;99.90;;;9.84;100.00;95994.63;5002704;28;20540;-77
2024/04/01 07:22:18;;;;;;;1.83;0.70;;;9.10;99.90;;;9.85;100.00;95993.59;5000504;28;20999;-77
2024/04/01 07:24:47;;;;;;;5.80;0.80;;;9.10;99.90;;;9.83;100.00;95995.63;5001396;28;20480;-78
2024/04/01 07:27:13;;;;;;;2.90;0.77;;;9.10;99.90;;;9.81;100.00;96001.09;5015143;28;20467;-78
2024/04/01 07:29:41;;;;;;;1.20;0.80;;;9.20;99.90;;;9.81;100.00;95990.66;5015458;28;20453;-78
2024/04/01 07:32:07;;;;;;;1.13;0.70;;;9.10;99.90;;;9.78;100.00;95975.47;4999007;28;21013;-78
2024/04/01 07:34:35;;;;;;;0.80;0.70;;;9.10;99.90;;;9.78;100.00;95972.06;4998160;28;20474;-77
2024/04/01 07:37:01;;;;;;;1.37;0.70;;;9.20;99.90;;;9.80;100.00;95962.97;4999529;28;20494;-78
2024/04/01 07:39:29;;;;;;;1.20;0.90;;;9.10;99.90;;;9.84;100.00;95963.28;5002547;28;20474;-77
2024/04/01 07:41:57;;;;;;;0.70;0.70;;;9.10;99.90;;;9.87;100.00;95971.44;4999600;28;20466;-78
2024/04/01 07:44:24;;;;;;;0.73;0.67;;;9.20;99.90;;;9.86;100.00;95974.28;5000965;28;20211;-77
2024/04/01 07:46:51;;;;;;;1.00;0.73;;;9.10;99.90;;;9.87;100.00;95989.72;4999613;28;20477;-79
2024/04/01 07:49:18;;;;;;;2.03;0.80;;;9.10;99.90;;;9.93;100.00;95998.44;4998914;28;20473;-79
2024/04/01 07:51:45;;;;;;;1.20;0.80;;;9.10;99.90;;;9.92;100.00;95996.88;5010562;28;20484;-79
2024/04/01 07:54:12;;;;;;;2.30;0.70;;;9.20;99.90;;;9.95;100.00;95997.19;4994323;28;21021;-79
2024/04/01 07:56:38;;;;;;;3.40;0.80;;;9.20;99.90;;;9.98;100.00;95993.31;4995237;28;20506;-79
2024/04/01 07:59:07;;;;;;;0.90;0.70;;;9.20;99.90;;;10.00;100.00;95997.28;4997219;28;20845;-79
2024/04/01 08:01:34;;;;;;;0.93;0.80;;;9.30;99.90;;;10.08;100.00;95999.50;4998982;28;20474;-81
2024/04/01 08:04:01;;;;;;;2.90;2.03;;;9.40;99.90;;;10.04;100.00;95993.16;4994295;28;20467;-79
2024/04/01 08:06:28;;;;;;;1.13;0.90;;;9.30;99.90;;;10.07;100.00;95984.06;4997423;28;20481;-80
2024/04/01 08:08:55;;;;;;;0.90;0.80;;;9.30;99.90;;;10.15;100.00;95986.34;4999817;28;20495;-79
2024/04/01 08:11:23;;;;;;;0.90;0.80;;;9.40;99.90;;;10.20;100.00;95991.66;5017148;28;21238;-79
2024/04/01 08:13:51;;;;;;;0.70;0.70;;;9.50;99.90;;;10.24;100.00;95995.38;4999067;28;20801;-80
2024/04/01 08:16:18;;;;;;;0.90;0.70;;;9.50;99.90;;;10.32;100.00;96015.09;5001676;28;20482;-78
2024/04/01 08:18:46;;;;;;;1.00;0.83;;;9.60;99.90;;;10.31;100.00;96018.75;5005792;28;20472;-79
2024/04/01 08:21:12;;;;;;;1.03;0.67;;;9.60;99.90;;;10.35;100.00;96018.03;5008469;28;20826;-78
2024/04/01 08:23:40;;;;;;;1.13;0.70;;;9.70;99.90;;;10.33;100.00;96014.88;5001582;28;20459;-80
2024/04/01 08:26:06;;;;;;;0.80;0.80;;;9.70;99.90;;;10.35;100.00;96020.63;5001520;28;20454;-79
2024/04/01 08:28:33;;;;;;;0.70;0.70;;;9.70;99.90;;;10.42;100.00;96021.28;5003926;28;20984;-78
2024/04/01 08:31:00;;;;;;;0.70;0.70;;;9.70;99.90;;;10.41;100.00;96024.91;4999269;28;20469;-79
2024/04/01 08:33:29;;;;;;;0.77;0.67;;;9.60;99.90;;;10.39;100.00;96029.59;5002222;28;20524;-78
2024/04/01 08:35:55;;;;;;;1.27;0.70;;;9.70;99.90;;;10.45;100.00;96035.69;5002983;28;20491;-79
2024/04/01 08:38:23;;;;;;;1.00;0.90;;;9.70;99.90;;;10.39;100.00;96037.44;5001909;28;20494;-78
2024/04/01 08:40:56;;;;;;;0.83;0.77;;;9.70;99.90;;;10.34;100.00;96039.19;5001642;28;20473;-78
2024/04/01 08:43:35;;;;;;;0.70;0.60;;;9.70;99.90;;;10.39;100.00;96041.88;5018825;28;20460;-79
2024/04/01 08:46:03;;;;;;;1.10;1.00;;;9.70;99.90;;;10.31;100.00;96045.66;4999054;28;20474;-79
2024/04/01 08:48:33;;;;;;;0.80;0.73;;;9.70;99.90;;;10.26;100.00;96050.00;5004913;28;20478;-79
2024/04/01 08:51:04;;;;;;;1.43;0.70;;;9.70;99.90;;;10.25;100.00;96048.41;5005535;28;20494;-80
2024/04/01 08:53:50;;;;;;;1.00;0.70;;;9.60;99.90;;;10.33;100.00;96055.88;5004765;28;20545;-79
2024/04/01 08:56:18;;;;;;;1.33;0.90;;;9.70;99.90;;;10.31;100.00;96066.53;5003215;28;20479;-79
2024/04/01 08:58:46;;;;;;;1.40;0.83;;;9.60;99.90;;;10.31;100.00;96069.16;5002371;28;20544;-80
2024/04/01 09:01:13;;;;;;;0.90;0.80;;;9.60;99.90;;;10.37;100.00;96055.19;5002244;28;20536;-79
2024/04/01 09:03:42;;;;;;;1.00;0.90;;;9.60;99.90;;;10.39;100.00;96047.09;5000850;28;20920;-79
2024/04/01 09:06:08;;;;;;;0.80;0.80;;;9.80;99.90;;;10.37;100.00;96051.78;5003942;28;20882;-79
2024/04/01 09:08:36;;;;;;;0.83;0.83;;;9.70;99.90;;;10.41;100.00;96056.28;5005292;28;20471;-78
2024/04/01 09:11:02;;;;;;;1.03;0.93;;;9.70;99.90;;;10.38;100.00;96050.72;5000420;28;20476;-79
2024/04/01 09:13:32;;;;;;;1.20;0.80;;;9.70;99.90;;;10.39;100.00;96060.94;4998394;28;20477;-79
2024/04/01 09:16:00;;;;;;;1.27;1.03;;;9.70;99.90;;;10.45;100.00;96067.84;5005339;28;20458;-78
2024/04/01 09:18:29;;;;;;;1.80;0.90;;;9.80;99.90;;;10.49;100.00;96070.78;5003840;28;20506;-79
2024/04/01 09:20:58;;;;;;;1.20;1.07;;;9.80;99.90;;;10.54;100.00;96074.28;4999654;28;20470;-77
2024/04/01 09:23:26;;;;;;;1.03;0.80;;;9.80;99.90;;;10.60;100.00;96089.03;5000293;28;20474;-78
2024/04/01 09:25:52;;;;;;;0.70;0.60;;;9.80;99.90;;;10.59;100.00;96084.81;5000591;28;20469;-83
2024/04/01 09:28:20;;;;;;;6.27;4.00;;;9.90;99.90;;;10.61;100.00;96095.06;5015323;28;20492;-79
2024/04/01 09:30:47;;;;;;;0.90;0.80;;;9.90;99.90;;;10.56;100.00;96100.19;5013709;28;20484;-79
2024/04/01 09:33:14;;;;;;;1.83;0.73;;;9.80;99.90;;;10.35;100.00;96106.84;4999704;28;20466;-79
2024/04/01 09:35:41;;;;;;;2.07;0.80;;;9.90;99.90;;;10.29;100.00;96110.41;5010751;28;20494;-79
2024/04/01 09:38:10;;;;;;;1.43;0.80;;;9.90;99.90;;;10.28;100.00;96119.25;5011411;28;20505;-78
2024/04/01 09:40:37;;;;;;;1.00;0.70;;;9.80;99.90;;;10.26;100.00;96126.53;5013762;28;20458;-79
2024/04/01 09:43:06;;;;;;;0.90;0.80;;;9.70;99.90;;;10.26;100.00;96144.84;4998937;28;20473;-77
2024/04/01 09:45:37;;;;;;;0.80;0.70;;;9.70;99.90;;;10.25;100.00;96150.28;5004016;28;20464;-77
2024/04/01 09:48:08;;;;;;;0.70;0.63;;;9.70;99.90;;;10.21;100.00;96170.84;5017618;28;20469;-77
2024/04/01 09:50:41;;;;;;;1.17;0.73;;;9.70;99.90;;;10.24;100.00;96186.03;5002547;28;20871;-77
2024/04/01 09:53:10;;;;;;;0.80;0.70;;;9.60;99.90;;;10.19;100.00;96206.84;5002878;28;20518;-77
2024/04/01 09:56:26;;;;;;;0.70;0.70;;;9.70;99.90;;;10.20;100.00;96208.44;5000457;28;20471;-76
2024/04/01 09:59:34;;;;;;;0.70;0.70;;;9.70;99.90;;;10.17;100.00;96208.88;5000514;28;20489;-78
2024/04/01 10:02:33;;;;;;;0.70;0.60;;;9.70;99.90;;;10.20;100.00;96221.50;5010546;28;20979;-78
2024/04/01 10:05:54;;;;;;;0.80;0.70;;;9.60;99.90;;;10.22;100.00;96227.28;4994347;28;20474;-78
2024/04/01 10:09:04;;;;;;;0.80;0.70;;;9.60;99.90;;;10.20;100.00;96229.34;4980955;28;21043;-77
2024/04/01 10:11:57;;;;;;;8.80;0.97;;;9.50;99.90;;;10.26;100.00;96236.25;4998660;28;20477;-78
2024/04/01 10:15:24;;;;;;;0.87;0.83;;;9.50;99.90;;;10.19;100.00;96245.22;5010610;28;20473;-78
2024/04/01 10:18:03;;;;;;;1.70;0.90;;;9.60;99.90;;;10.17;100.00;96247.28;4975586;28;20491;-78
2024/04/01 10:21:16;;;;;;;1.03;0.87;;;9.50;99.90;;;10.25;100.00;96260.78;5012477;28;20470;-78
2024/04/01 10:24:53;;;;;;;0.97;0.80;;;9.60;99.90;;;10.26;100.00;96262.38;4994809;28;20726;-78
2024/04/01 10:28:22;;;;;;;0.90;0.80;;;9.60;99.90;;;10.26;100.00;96272.84;4999545;28;20466;-77
2024/04/01 10:31:55;;;;;;;0.90;0.80;;;9.60;99.90;;;10.30;100.00;96278.41;4997440;28;20969;-76